createdAt,value
2019-05-21T00:01:46.582Z,10.91
2019-05-21T00:04:27.844Z,10.97
2019-05-21T00:06:48.982Z,10.98
2019-05-21T00:09:19.639Z,10.93
2019-05-21T00:11:49.964Z,11.19
2019-05-21T00:14:20.310Z,10.83
2019-05-21T00:16:51.023Z,11.26
2019-05-21T00:19:21.615Z,11.16
2019-05-21T00:21:51.926Z,11.14
2019-05-21T00:24:22.720Z,11.05
2019-05-21T00:26:53.414Z,11.35
2019-05-21T00:29:59.562Z,11.35
2019-05-21T00:33:05.783Z,10.81
2019-05-21T00:36:12.030Z,10.93
2019-05-21T00:39:19.992Z,10.97
2019-05-21T00:42:02.632Z,10.67
2019-05-21T00:44:39.684Z,10.60
2019-05-21T00:47:11.725Z,10.58
2019-05-21T00:49:42.442Z,10.54
2019-05-21T00:52:12.774Z,10.64
2019-05-21T00:54:43.383Z,10.61
2019-05-21T00:57:13.764Z,10.67
2019-05-21T00:59:44.060Z,10.30
2019-05-21T01:02:14.503Z,10.40
2019-05-21T01:04:59.556Z,10.28
2019-05-21T01:07:17.279Z,10.59
2019-05-21T01:09:47.985Z,10.51
2019-05-21T01:12:18.432Z,10.71
2019-05-21T01:14:49.052Z,10.81
2019-05-21T01:17:19.789Z,10.96
2019-05-21T01:19:50.189Z,10.85
2019-05-21T01:22:20.782Z,11.26
2019-05-21T01:24:51.460Z,11.11
2019-05-21T01:27:22.865Z,11.22
2019-05-21T01:29:53.180Z,11.09
2019-05-21T01:32:23.918Z,10.79
2019-05-21T01:34:54.214Z,11.13
2019-05-21T01:37:24.558Z,11.28
2019-05-21T01:39:55.228Z,11.35
2019-05-21T01:42:25.706Z,10.94
2019-05-21T01:44:56.198Z,11.25
2019-05-21T01:47:26.559Z,11.34
2019-05-21T01:49:56.885Z,11.15
2019-05-21T01:52:27.588Z,10.99
2019-05-21T01:54:57.995Z,11.40
2019-05-21T01:57:28.280Z,11.28
2019-05-21T01:59:59.002Z,10.73
2019-05-21T02:02:29.577Z,11.01
2019-05-21T02:04:59.870Z,11.25
2019-05-21T02:07:30.619Z,10.99
2019-05-21T02:10:01.547Z,11.44
2019-05-21T02:12:32.050Z,11.30
2019-05-21T02:15:02.383Z,10.87
2019-05-21T02:17:32.720Z,11.33
2019-05-21T02:20:03.518Z,11.06
2019-05-21T02:22:34.098Z,11.22
2019-05-21T02:25:04.971Z,11.23
2019-05-21T02:27:35.682Z,11.14
2019-05-21T02:30:09.491Z,10.83
2019-05-21T02:32:39.876Z,11.02
2019-05-21T02:35:11.152Z,11.08
2019-05-21T02:37:41.748Z,11.04
2019-05-21T02:40:12.948Z,10.99
2019-05-21T02:42:43.393Z,10.24
2019-05-21T02:45:14.177Z,10.76
2019-05-21T02:47:44.892Z,10.74
2019-05-21T02:50:15.942Z,10.90
2019-05-21T02:52:46.267Z,11.07
2019-05-21T02:55:17.211Z,10.82
2019-05-21T02:57:48.718Z,10.95
2019-05-21T03:00:50.484Z,10.89
2019-05-21T03:03:23.976Z,10.60
2019-05-21T03:06:12.306Z,10.79
2019-05-21T03:08:26.703Z,10.84
2019-05-21T03:10:57.028Z,10.96
2019-05-21T03:13:27.860Z,10.86
2019-05-21T03:15:58.160Z,10.64
2019-05-21T03:18:28.495Z,11.00
2019-05-21T03:20:59.115Z,10.77
2019-05-21T03:23:29.588Z,10.88
2019-05-21T03:25:59.927Z,10.97
2019-05-21T03:28:30.298Z,10.92
2019-05-21T03:31:00.773Z,10.93
2019-05-21T03:33:31.045Z,11.02
2019-05-21T03:36:01.902Z,10.91
2019-05-21T03:38:32.638Z,11.05
2019-05-21T03:41:02.938Z,11.12
2019-05-21T03:43:33.382Z,10.93
2019-05-21T03:46:04.182Z,10.74
2019-05-21T03:48:34.537Z,10.60
2019-05-21T03:51:05.453Z,10.63
2019-05-21T03:53:35.785Z,10.94
2019-05-21T03:56:06.666Z,11.08
2019-05-21T03:58:37.123Z,10.98
2019-05-21T04:01:07.411Z,11.06
2019-05-21T04:03:38.022Z,11.13
2019-05-21T04:06:08.776Z,11.18
2019-05-21T04:08:39.118Z,11.49
2019-05-21T04:11:09.448Z,11.40
2019-05-21T04:13:40.218Z,11.56
2019-05-21T04:16:38.217Z,11.55
2019-05-21T04:19:12.219Z,11.63
2019-05-21T04:21:43.025Z,11.55
2019-05-21T04:24:13.396Z,11.75
2019-05-21T04:26:43.818Z,11.71
2019-05-21T04:29:14.123Z,11.72
2019-05-21T04:31:44.584Z,11.80
2019-05-21T04:34:15.261Z,11.88
2019-05-21T04:36:45.616Z,11.85
2019-05-21T04:39:16.019Z,11.94
2019-05-21T04:41:46.727Z,12.32
2019-05-21T04:44:17.310Z,12.33
2019-05-21T04:46:47.834Z,12.45
2019-05-21T04:49:18.533Z,12.58
2019-05-21T04:51:49.286Z,12.76
2019-05-21T04:54:19.672Z,12.94
2019-05-21T04:56:50.031Z,13.06
2019-05-21T04:59:20.332Z,13.01
2019-05-21T05:01:51.003Z,13.06
2019-05-21T05:04:22.308Z,13.25
2019-05-21T05:06:53.000Z,13.20
2019-05-21T05:09:23.675Z,13.39
2019-05-21T05:11:54.238Z,13.46
2019-05-21T05:14:24.539Z,13.58
2019-05-21T05:16:55.366Z,13.72
2019-05-21T05:19:26.079Z,13.72
2019-05-21T05:21:56.423Z,13.87
2019-05-21T05:24:26.829Z,13.90
2019-05-21T05:26:57.152Z,14.14
2019-05-21T05:29:27.913Z,14.42
2019-05-21T05:31:58.592Z,14.59
2019-05-21T05:34:28.929Z,14.54
2019-05-21T05:36:59.669Z,14.49
2019-05-21T05:39:30.187Z,14.47
2019-05-21T05:42:00.537Z,14.48
2019-05-21T05:44:31.153Z,14.63
2019-05-21T05:47:01.791Z,14.69
2019-05-21T05:49:37.324Z,14.83
2019-05-21T05:52:07.703Z,14.90
2019-05-21T05:54:39.064Z,15.14
2019-05-21T05:57:09.412Z,15.26
2019-05-21T05:59:40.264Z,15.25
2019-05-21T06:02:10.676Z,15.26
2019-05-21T06:04:41.110Z,15.49
2019-05-21T06:07:11.803Z,15.44
2019-05-21T06:09:42.153Z,15.70
2019-05-21T06:12:12.732Z,15.77
2019-05-21T06:14:43.398Z,15.91
2019-05-21T06:17:13.862Z,16.24
2019-05-21T06:19:44.174Z,16.09
2019-05-21T06:22:14.771Z,16.25
2019-05-21T06:24:45.415Z,16.39
2019-05-21T06:27:15.854Z,16.63
2019-05-21T06:29:46.544Z,16.59
2019-05-21T06:32:16.884Z,16.92
2019-05-21T06:34:48.768Z,17.01
2019-05-21T06:37:19.274Z,17.22
2019-05-21T06:39:49.579Z,17.00
2019-05-21T06:42:20.279Z,17.14
2019-05-21T06:44:50.842Z,17.08
2019-05-21T06:47:21.199Z,17.25
2019-05-21T06:49:51.828Z,17.60
2019-05-21T06:52:22.278Z,17.23
2019-05-21T06:54:52.581Z,17.40
2019-05-21T06:57:23.162Z,17.44
2019-05-21T06:59:53.878Z,17.72
2019-05-21T07:02:24.256Z,17.88
2019-05-21T07:04:54.774Z,16.51
2019-05-21T07:07:25.303Z,17.92
2019-05-21T07:09:56.069Z,18.22
2019-05-21T07:12:28.441Z,18.40
2019-05-21T07:14:58.791Z,18.65
2019-05-21T07:17:29.348Z,18.64
2019-05-21T07:20:00.136Z,18.75
2019-05-21T07:22:30.492Z,18.70
2019-05-21T07:25:01.283Z,18.54
2019-05-21T07:27:33.097Z,18.12
2019-05-21T07:30:03.419Z,18.07
2019-05-21T07:32:34.898Z,17.85
2019-05-21T07:35:06.178Z,17.85
2019-05-21T07:37:36.532Z,17.57
2019-05-21T07:40:07.790Z,17.63
2019-05-21T07:42:38.447Z,17.25
2019-05-21T07:45:09.689Z,17.33
2019-05-21T07:47:40.087Z,17.32
2019-05-21T07:50:10.791Z,17.32
2019-05-21T07:52:41.168Z,17.64
2019-05-21T07:55:11.807Z,17.64
2019-05-21T07:57:42.418Z,17.79
2019-05-21T08:00:13.410Z,17.76
2019-05-21T08:02:43.703Z,17.78
2019-05-21T08:05:14.359Z,17.68
2019-05-21T08:07:44.665Z,17.74
2019-05-21T08:10:15.606Z,17.63
2019-05-21T08:12:46.316Z,17.81
2019-05-21T08:15:16.830Z,17.64
2019-05-21T08:17:47.574Z,17.64
2019-05-21T08:20:18.572Z,18.04
2019-05-21T08:22:48.875Z,17.83
2019-05-21T08:25:19.256Z,18.12
2019-05-21T08:27:49.781Z,18.18
2019-05-21T08:30:20.433Z,18.70
2019-05-21T08:32:50.809Z,18.39
2019-05-21T08:35:21.622Z,18.49
2019-05-21T08:37:51.924Z,18.53
2019-05-21T08:40:22.655Z,18.77
2019-05-21T08:42:52.964Z,18.83
2019-05-21T08:45:23.748Z,18.46
2019-05-21T08:47:54.456Z,18.75
2019-05-21T08:50:24.786Z,18.76
2019-05-21T08:52:55.082Z,18.70
2019-05-21T08:55:25.525Z,18.86
2019-05-21T09:00:28.303Z,18.97
2019-05-21T09:02:59.302Z,18.86
2019-05-21T09:03:13.779Z,19.09
2019-05-21T09:05:29.819Z,19.14
2019-05-21T09:08:00.216Z,19.07
2019-05-21T09:10:30.956Z,19.10
2019-05-21T09:13:01.266Z,19.10
2019-05-21T09:15:31.971Z,19.10
2019-05-21T09:18:02.309Z,19.00
2019-05-21T09:20:32.964Z,19.22
2019-05-21T09:23:03.490Z,19.54
2019-05-21T09:25:34.204Z,19.54
2019-05-21T09:28:04.564Z,19.62
2019-05-21T09:30:35.345Z,19.71
2019-05-21T09:33:05.973Z,19.74
2019-05-21T09:35:36.347Z,19.79
2019-05-21T09:38:06.890Z,19.96
2019-05-21T09:40:37.837Z,19.82
2019-05-21T09:43:08.326Z,19.49
2019-05-21T09:45:39.104Z,19.61
2019-05-21T09:48:09.597Z,19.59
2019-05-21T09:50:40.252Z,20.05
2019-05-21T09:53:10.646Z,20.43
2019-05-21T09:55:41.008Z,20.12
2019-05-21T09:58:28.869Z,20.19
2019-05-21T10:01:18.500Z,19.68
2019-05-21T10:03:52.354Z,20.12
2019-05-21T10:06:22.922Z,20.79
2019-05-21T10:08:53.544Z,21.26
2019-05-21T10:11:23.900Z,20.83
2019-05-21T10:13:54.311Z,20.97
2019-05-21T10:16:24.874Z,20.97
2019-05-21T10:18:55.605Z,21.21
2019-05-21T10:21:26.209Z,21.27
2019-05-21T10:23:56.495Z,20.84
2019-05-21T10:26:27.085Z,21.10
2019-05-21T10:28:57.891Z,21.31
2019-05-21T10:31:28.173Z,21.55
2019-05-21T10:33:58.551Z,21.32
2019-05-21T10:36:28.988Z,21.86
2019-05-21T10:38:59.297Z,21.80
2019-05-21T10:41:29.636Z,22.09
2019-05-21T10:44:00.263Z,21.78
2019-05-21T10:46:30.783Z,21.79
2019-05-21T10:49:01.585Z,21.82
2019-05-21T10:51:31.870Z,22.02
2019-05-21T10:54:02.338Z,21.95
2019-05-21T10:56:46.786Z,22.15
2019-05-21T10:59:05.289Z,21.96
2019-05-21T11:01:57.679Z,22.21
2019-05-21T11:04:47.310Z,22.14
2019-05-21T11:07:19.214Z,21.77
2019-05-21T11:09:49.574Z,21.52
2019-05-21T11:12:20.308Z,21.58
2019-05-21T11:14:50.997Z,21.32
2019-05-21T11:17:21.568Z,21.72
2019-05-21T11:19:52.007Z,21.66
2019-05-21T11:22:22.387Z,21.55
2019-05-21T11:24:52.948Z,21.73
2019-05-21T11:27:23.874Z,22.02
2019-05-21T11:29:54.213Z,22.09
2019-05-21T11:32:25.017Z,21.66
2019-05-21T11:34:55.998Z,21.35
2019-05-21T11:37:26.318Z,21.48
2019-05-21T11:39:57.145Z,21.52
2019-05-21T11:42:27.739Z,21.76
2019-05-21T11:44:58.085Z,20.07
2019-05-21T11:47:28.594Z,20.08
2019-05-21T11:49:59.162Z,20.34
2019-05-21T11:52:29.460Z,20.03
2019-05-21T11:54:59.877Z,19.30
2019-05-21T11:57:30.261Z,18.97
2019-05-21T12:00:00.602Z,18.79
2019-05-21T12:02:30.912Z,18.66
2019-05-21T12:05:01.656Z,18.52
2019-05-21T12:07:32.035Z,18.42
2019-05-21T12:10:02.376Z,18.22
2019-05-21T12:12:33.073Z,17.74
2019-05-21T12:15:03.893Z,17.74
2019-05-21T12:17:34.182Z,17.92
2019-05-21T12:20:05.467Z,18.41
2019-05-21T12:22:35.874Z,18.83
2019-05-21T12:25:06.900Z,18.81
2019-05-21T12:27:37.283Z,19.13
2019-05-21T12:30:08.337Z,19.45
2019-05-21T12:32:40.250Z,19.79
2019-05-21T12:35:11.359Z,20.02
2019-05-21T12:37:41.763Z,20.45
2019-05-21T12:40:13.316Z,20.71
2019-05-21T12:42:44.079Z,20.46
2019-05-21T12:45:14.689Z,20.88
2019-05-21T12:47:45.071Z,20.39
2019-05-21T12:50:16.040Z,20.83
2019-05-21T12:52:46.327Z,21.04
2019-05-21T12:55:16.976Z,21.18
2019-05-21T12:57:47.507Z,22.05
2019-05-21T13:00:19.436Z,22.11
2019-05-21T13:02:50.010Z,22.43
2019-05-21T13:05:20.352Z,22.82
2019-05-21T13:07:51.922Z,23.51
2019-05-21T13:10:22.759Z,23.52
2019-05-21T13:12:53.077Z,24.43
2019-05-21T13:15:23.495Z,24.52
2019-05-21T13:17:54.076Z,24.21
2019-05-21T13:20:24.521Z,23.13
2019-05-21T13:22:54.901Z,21.81
2019-05-21T13:25:25.953Z,20.70
2019-05-21T13:27:57.690Z,20.43
2019-05-21T13:30:28.833Z,20.57
2019-05-21T13:32:59.079Z,20.71
2019-05-21T13:35:29.570Z,21.04
2019-05-21T13:38:00.472Z,20.91
2019-05-21T13:40:32.550Z,21.29
2019-05-21T13:43:02.946Z,21.47
2019-05-21T13:45:34.507Z,22.47
2019-05-21T13:48:05.055Z,22.99
2019-05-21T13:50:35.338Z,22.66
2019-05-21T13:53:06.189Z,22.50
2019-05-21T13:55:36.840Z,21.78
2019-05-21T13:58:07.377Z,21.79
2019-05-21T14:00:42.434Z,21.40
2019-05-21T14:03:13.285Z,20.28
2019-05-21T14:05:44.160Z,19.35
2019-05-21T14:08:14.752Z,18.71
2019-05-21T14:10:45.159Z,18.85
2019-05-21T14:13:15.882Z,18.61
2019-05-21T14:15:47.252Z,19.02
2019-05-21T14:18:17.588Z,19.11
2019-05-21T14:20:47.989Z,19.69
2019-05-21T14:23:18.782Z,20.58
2019-05-21T14:25:49.082Z,21.25
2019-05-21T14:28:20.000Z,21.67
2019-05-21T14:30:50.800Z,21.46
2019-05-21T14:33:21.183Z,21.10
2019-05-21T14:35:51.732Z,20.77
2019-05-21T14:38:22.036Z,21.32
2019-05-21T14:40:52.835Z,22.40
2019-05-21T14:43:23.572Z,22.65
2019-05-21T14:45:53.962Z,23.85
2019-05-21T14:48:24.445Z,25.17
2019-05-21T14:50:54.863Z,25.21
2019-05-21T14:53:25.158Z,26.02
2019-05-21T14:55:55.485Z,26.20
2019-05-21T14:58:26.131Z,26.18
2019-05-21T15:00:56.477Z,26.30
2019-05-21T15:03:29.508Z,26.40
2019-05-21T15:05:59.267Z,26.72
2019-05-21T15:08:29.678Z,26.92
2019-05-21T15:11:01.354Z,27.36
2019-05-21T15:13:31.646Z,28.06
2019-05-21T15:16:01.981Z,28.52
2019-05-21T15:18:32.434Z,28.79
2019-05-21T15:21:10.954Z,28.17
2019-05-21T15:23:42.032Z,25.45
2019-05-21T15:26:13.411Z,24.64
2019-05-21T15:28:44.822Z,22.40
2019-05-21T15:31:15.249Z,22.27
2019-05-21T15:33:45.979Z,21.56
2019-05-21T15:36:16.460Z,21.14
2019-05-21T15:38:50.502Z,20.97
2019-05-21T15:41:18.988Z,20.47
2019-05-21T15:43:49.336Z,19.96
2019-05-21T15:46:20.130Z,19.74
2019-05-21T15:48:50.810Z,19.35
2019-05-21T15:51:21.296Z,19.07
2019-05-21T15:53:51.939Z,18.87
2019-05-21T15:56:22.828Z,18.76
2019-05-21T15:58:54.094Z,18.12
2019-05-21T16:01:24.844Z,17.93
2019-05-21T16:03:55.767Z,17.72
2019-05-21T16:06:26.160Z,17.72
2019-05-21T16:08:57.844Z,17.49
2019-05-21T16:11:29.366Z,17.49
2019-05-21T16:13:59.802Z,17.58
2019-05-21T16:16:30.111Z,17.58
2019-05-21T16:19:00.558Z,17.59
2019-05-21T16:21:30.867Z,17.42
2019-05-21T16:24:01.432Z,17.65
2019-05-21T16:26:32.076Z,17.86
2019-05-21T16:29:02.608Z,17.82
2019-05-21T16:31:32.940Z,17.90
2019-05-21T16:34:03.739Z,18.39
2019-05-21T16:36:34.506Z,18.60
2019-05-21T16:39:07.366Z,18.98
2019-05-21T16:41:44.640Z,19.18
2019-05-21T16:44:10.170Z,19.09
2019-05-21T16:46:42.535Z,18.92
2019-05-21T16:49:12.772Z,18.55
2019-05-21T16:51:43.654Z,18.47
2019-05-21T16:54:14.742Z,18.99
2019-05-21T16:56:45.409Z,19.33
2019-05-21T16:59:15.832Z,19.76
2019-05-21T17:01:46.384Z,19.67
2019-05-21T17:04:16.953Z,19.45
2019-05-21T17:06:47.271Z,19.35
2019-05-21T17:09:17.775Z,19.18
2019-05-21T17:11:59.591Z,19.01
2019-05-21T17:14:20.546Z,18.72
2019-05-21T17:16:50.985Z,18.88
2019-05-21T17:19:21.320Z,19.15
2019-05-21T17:21:52.037Z,17.71
2019-05-21T17:24:22.699Z,19.53
2019-05-21T17:26:53.091Z,19.40
2019-05-21T17:29:23.883Z,19.13
2019-05-21T17:31:54.672Z,17.21
2019-05-21T17:34:25.293Z,18.79
2019-05-21T17:36:55.608Z,18.14
2019-05-21T17:39:26.502Z,17.70
2019-05-21T17:41:56.789Z,17.77
2019-05-21T17:44:27.252Z,17.35
2019-05-21T17:46:58.052Z,17.35
2019-05-21T17:49:28.591Z,17.39
2019-05-21T17:51:59.429Z,16.89
2019-05-21T17:54:29.925Z,16.71
2019-05-21T17:57:00.275Z,16.95
2019-05-21T17:59:32.208Z,16.95
2019-05-21T18:02:04.439Z,14.86
2019-05-21T18:04:34.768Z,16.55
2019-05-21T18:07:07.900Z,16.66
2019-05-21T18:09:38.611Z,16.60
2019-05-21T18:12:10.954Z,16.28
2019-05-21T18:14:42.196Z,16.41
2019-05-21T18:17:16.190Z,16.27
2019-05-21T18:19:49.239Z,15.95
2019-05-21T18:22:22.104Z,15.62
2019-05-21T18:24:53.379Z,15.61
2019-05-21T18:27:24.230Z,15.74
2019-05-21T18:29:56.726Z,15.44
2019-05-21T18:32:27.698Z,15.58
2019-05-21T18:34:58.094Z,15.40
2019-05-21T18:37:28.771Z,15.51
2019-05-21T18:39:59.687Z,15.48
2019-05-21T18:42:30.274Z,15.62
2019-05-21T18:45:00.675Z,15.54
2019-05-21T18:47:31.369Z,15.51
2019-05-21T18:50:01.853Z,15.31
2019-05-21T18:52:32.791Z,15.13
2019-05-21T18:55:03.132Z,14.93
2019-05-21T18:57:33.582Z,14.83
2019-05-21T19:00:04.271Z,14.74
2019-05-21T19:02:34.843Z,14.86
2019-05-21T19:05:05.818Z,14.90
2019-05-21T19:07:37.088Z,14.91
2019-05-21T19:10:07.837Z,14.83
2019-05-21T19:12:40.064Z,14.79
2019-05-21T19:15:11.678Z,14.81
2019-05-21T19:17:42.080Z,14.85
2019-05-21T19:20:13.784Z,14.91
2019-05-21T19:22:44.678Z,14.92
2019-05-21T19:25:16.414Z,14.97
2019-05-21T19:27:47.182Z,14.82
2019-05-21T19:30:17.778Z,14.96
2019-05-21T19:32:48.345Z,14.89
2019-05-21T19:35:19.094Z,14.86
2019-05-21T19:37:49.629Z,14.86
2019-05-21T19:40:20.163Z,14.86
2019-05-21T19:42:54.957Z,14.90
2019-05-21T19:45:22.848Z,14.89
2019-05-21T19:47:53.226Z,14.65
2019-05-21T19:50:24.966Z,14.77
2019-05-21T19:52:55.575Z,14.83
2019-05-21T19:55:27.482Z,14.99
2019-05-21T19:57:58.084Z,14.95
2019-05-21T20:00:30.799Z,14.69
2019-05-21T20:03:01.733Z,14.78
2019-05-21T20:05:33.286Z,14.34
2019-05-21T20:08:04.256Z,14.24
2019-05-21T20:10:35.033Z,13.97
2019-05-21T20:13:05.705Z,14.08
2019-05-21T20:15:36.318Z,14.12
2019-05-21T20:18:07.828Z,14.06
2019-05-21T20:20:39.052Z,14.01
2019-05-21T20:23:10.695Z,13.99
2019-05-21T20:25:55.514Z,14.11
2019-05-21T20:28:14.743Z,14.06
2019-05-21T20:30:45.446Z,13.96
2019-05-21T20:33:17.192Z,13.99
2019-05-21T20:35:48.615Z,13.87
2019-05-21T20:38:19.685Z,13.89
2019-05-21T20:40:50.026Z,14.04
2019-05-21T20:43:21.173Z,14.05
2019-05-21T20:45:51.861Z,14.29
2019-05-21T20:48:26.350Z,14.18
2019-05-21T20:50:56.958Z,14.30
2019-05-21T20:53:27.750Z,14.37
2019-05-21T20:55:58.097Z,14.73
2019-05-21T20:58:28.996Z,14.87
2019-05-21T21:01:02.377Z,14.83
2019-05-21T21:03:33.709Z,14.67
2019-05-21T21:06:05.063Z,14.54
2019-05-21T21:08:36.624Z,14.48
2019-05-21T21:11:09.117Z,14.21
2019-05-21T21:13:40.587Z,14.34
2019-05-21T21:16:11.437Z,14.20
2019-05-21T21:18:41.916Z,14.31
2019-05-21T21:21:12.871Z,14.47
2019-05-21T21:23:43.522Z,13.84
2019-05-21T21:26:15.004Z,13.85
2019-05-21T21:28:47.096Z,14.25
2019-05-21T21:31:17.420Z,14.44
2019-05-21T21:33:48.438Z,14.29
2019-05-21T21:36:18.875Z,14.17
2019-05-21T21:38:49.493Z,14.02
2019-05-21T21:41:21.358Z,13.32
2019-05-21T21:43:51.598Z,13.68
2019-05-21T21:46:21.925Z,13.30
2019-05-21T21:48:52.475Z,13.03
2019-05-21T21:51:23.193Z,13.06
2019-05-21T21:53:54.163Z,13.34
2019-05-21T21:56:24.974Z,13.23
2019-05-21T21:58:55.437Z,13.28
2019-05-21T22:01:43.479Z,12.99
2019-05-21T22:04:18.375Z,12.99
2019-05-21T22:06:50.988Z,12.68
2019-05-21T22:09:34.850Z,12.53
2019-05-21T22:12:06.490Z,12.49
2019-05-21T22:14:49.599Z,12.52
2019-05-21T22:17:11.911Z,12.54
2019-05-21T22:19:42.275Z,12.43
2019-05-21T22:22:13.421Z,12.37
2019-05-21T22:24:43.745Z,12.20
2019-05-21T22:27:14.066Z,12.45
2019-05-21T22:29:45.633Z,12.41
2019-05-21T22:32:16.978Z,12.26
2019-05-21T22:34:47.285Z,12.16
2019-05-21T22:37:22.333Z,12.03
2019-05-21T22:39:53.432Z,12.08
2019-05-21T22:42:24.948Z,12.01
2019-05-21T22:45:07.533Z,11.93
2019-05-21T22:47:27.834Z,11.92
2019-05-21T22:49:58.129Z,11.88
2019-05-21T22:52:28.720Z,11.80
2019-05-21T22:54:59.375Z,11.81
2019-05-21T22:57:29.722Z,11.68
2019-05-21T23:00:00.066Z,11.65
2019-05-21T23:02:33.722Z,11.52
2019-05-21T23:05:04.237Z,11.52
2019-05-21T23:07:34.813Z,11.54
2019-05-21T23:10:06.323Z,11.57
2019-05-21T23:12:37.070Z,11.58
2019-05-21T23:15:23.716Z,11.51
2019-05-21T23:17:42.980Z,11.49
2019-05-21T23:20:33.978Z,11.45
2019-05-21T23:23:06.103Z,11.53
2019-05-21T23:25:38.687Z,11.51
2019-05-21T23:28:10.118Z,11.51
2019-05-21T23:30:40.919Z,11.39
2019-05-21T23:33:13.148Z,11.46
2019-05-21T23:35:43.811Z,11.43
2019-05-21T23:38:16.640Z,11.41
2019-05-21T23:40:48.630Z,11.42
2019-05-21T23:43:19.530Z,11.40
2019-05-21T23:45:49.825Z,11.36
2019-05-21T23:48:20.942Z,11.33
2019-05-21T23:50:51.707Z,11.39
2019-05-21T23:53:22.448Z,11.32
2019-05-21T23:55:52.761Z,11.49
2019-05-21T23:58:23.943Z,11.55
